createdAt,value
2019-04-09T00:01:40.350Z,10.10
2019-04-09T00:04:12.473Z,10.10
2019-04-09T00:06:48.065Z,10.10
2019-04-09T00:09:18.843Z,10.10
2019-04-09T00:11:48.001Z,10.20
2019-04-09T00:14:17.897Z,10.20
2019-04-09T00:16:47.801Z,10.20
2019-04-09T00:19:16.931Z,10.20
2019-04-09T00:21:46.036Z,10.20
2019-04-09T00:24:15.141Z,10.20
2019-04-09T00:26:50.302Z,10.20
2019-04-09T00:29:15.002Z,10.20
2019-04-09T00:31:44.024Z,10.20
2019-04-09T00:34:13.283Z,10.20
2019-04-09T00:36:42.346Z,10.20
2019-04-09T00:39:12.263Z,10.20
2019-04-09T00:41:42.195Z,10.20
2019-04-09T00:44:12.297Z,10.30
2019-04-09T00:46:42.412Z,10.30
2019-04-09T00:49:11.555Z,10.30
2019-04-09T00:51:41.518Z,10.30
2019-04-09T00:54:10.581Z,10.30
2019-04-09T00:56:39.703Z,10.30
2019-04-09T00:59:09.713Z,10.30
2019-04-09T01:01:38.922Z,10.30
2019-04-09T01:04:07.996Z,10.30
2019-04-09T01:06:37.091Z,10.30
2019-04-09T01:09:10.288Z,10.30
2019-04-09T01:11:39.550Z,10.30
2019-04-09T01:14:08.644Z,10.30
2019-04-09T01:16:38.232Z,10.30
2019-04-09T01:19:15.810Z,10.30
2019-04-09T01:21:39.158Z,10.30
2019-04-09T01:24:08.462Z,10.30
2019-04-09T01:27:08.236Z,10.30
2019-04-09T01:29:35.048Z,10.30
2019-04-09T01:32:22.756Z,10.30
2019-04-09T01:35:09.817Z,10.30
2019-04-09T01:37:49.894Z,10.30
2019-04-09T01:40:41.848Z,10.30
2019-04-09T01:43:28.688Z,10.30
2019-04-09T01:46:15.583Z,10.30
2019-04-09T01:49:03.188Z,10.30
2019-04-09T01:52:00.431Z,10.30
2019-04-09T01:54:41.435Z,10.30
2019-04-09T01:57:29.594Z,10.30
2019-04-09T02:00:11.881Z,10.30
2019-04-09T02:03:06.699Z,10.30
2019-04-09T02:06:12.823Z,10.30
2019-04-09T02:08:59.591Z,10.30
2019-04-09T02:12:03.977Z,10.30
2019-04-09T02:14:47.973Z,10.30
2019-04-09T02:17:42.497Z,10.20
2019-04-09T02:20:49.939Z,10.20
2019-04-09T02:23:44.731Z,10.20
2019-04-09T02:26:39.093Z,10.20
2019-04-09T02:29:39.175Z,10.20
2019-04-09T02:32:15.975Z,10.20
2019-04-09T02:35:04.482Z,10.20
2019-04-09T02:38:01.619Z,10.10
2019-04-09T02:40:44.787Z,10.10
2019-04-09T02:43:32.944Z,10.10
2019-04-09T02:46:39.353Z,10.10
2019-04-09T02:49:14.687Z,10.10
2019-04-09T02:52:15.501Z,10.00
2019-04-09T02:55:02.651Z,10.00
2019-04-09T02:57:54.913Z,10.00
2019-04-09T03:00:43.502Z,10.00
2019-04-09T03:03:25.922Z,10.00
2019-04-09T03:06:09.765Z,10.00
2019-04-09T03:08:55.531Z,10.00
2019-04-09T03:12:02.760Z,10.00
2019-04-09T03:14:57.377Z,10.00
2019-04-09T03:17:48.977Z,9.90
2019-04-09T03:20:49.154Z,9.90
2019-04-09T03:23:35.700Z,9.90
2019-04-09T03:26:20.496Z,9.90
2019-04-09T03:28:59.834Z,9.90
2019-04-09T03:31:49.907Z,9.90
2019-04-09T03:34:27.271Z,9.90
2019-04-09T03:37:04.204Z,9.80
2019-04-09T03:39:52.195Z,9.80
2019-04-09T03:42:41.231Z,9.80
2019-04-09T03:45:35.550Z,9.80
2019-04-09T03:48:17.349Z,9.80
2019-04-09T03:51:04.366Z,9.80
2019-04-09T03:53:42.097Z,9.80
2019-04-09T03:56:34.298Z,9.80
2019-04-09T03:59:19.309Z,9.80
2019-04-09T04:02:05.976Z,9.80
2019-04-09T04:04:54.538Z,9.80
2019-04-09T04:07:58.298Z,9.90
2019-04-09T04:10:46.596Z,9.90
2019-04-09T04:13:28.915Z,9.90
2019-04-09T04:16:14.283Z,9.90
2019-04-09T04:18:54.665Z,9.80
2019-04-09T04:21:55.043Z,9.80
2019-04-09T04:24:49.499Z,9.80
2019-04-09T04:27:40.665Z,9.80
2019-04-09T04:30:44.196Z,9.80
2019-04-09T04:33:20.759Z,9.80
2019-04-09T04:36:15.123Z,9.80
2019-04-09T04:39:01.881Z,9.80
2019-04-09T04:41:59.050Z,9.80
2019-04-09T04:44:50.051Z,9.80
2019-04-09T04:47:56.984Z,9.80
2019-04-09T04:50:39.682Z,9.80
2019-04-09T04:53:27.877Z,9.70
2019-04-09T04:56:15.267Z,9.70
2019-04-09T04:59:12.228Z,9.70
2019-04-09T05:01:58.731Z,9.70
2019-04-09T05:04:54.347Z,9.70
2019-04-09T05:07:45.084Z,9.70
2019-04-09T05:10:37.551Z,9.70
2019-04-09T05:13:25.759Z,9.70
2019-04-09T05:16:28.982Z,9.70
2019-04-09T05:19:15.973Z,9.70
2019-04-09T05:22:06.992Z,9.70
2019-04-09T05:24:55.126Z,9.70
2019-04-09T05:27:44.610Z,9.70
2019-04-09T05:30:31.513Z,9.70
2019-04-09T05:33:28.912Z,9.70
2019-04-09T05:36:08.111Z,9.70
2019-04-09T05:39:05.303Z,9.70
2019-04-09T05:41:54.354Z,9.80
2019-04-09T05:44:51.685Z,9.80
2019-04-09T05:47:29.948Z,9.80
2019-04-09T05:50:10.813Z,9.80
2019-04-09T05:52:57.556Z,9.80
2019-04-09T05:55:38.886Z,9.80
2019-04-09T05:58:27.672Z,9.80
2019-04-09T06:01:08.506Z,9.80
2019-04-09T06:04:09.582Z,9.90
2019-04-09T06:06:56.433Z,9.80
2019-04-09T06:09:29.123Z,9.90
2019-04-09T06:11:58.440Z,9.90
2019-04-09T06:14:27.653Z,9.90
2019-04-09T06:16:56.784Z,9.90
2019-04-09T06:19:25.882Z,9.90
2019-04-09T06:21:55.083Z,9.90
2019-04-09T06:24:24.966Z,10.00
2019-04-09T06:26:55.625Z,10.00
2019-04-09T06:29:26.149Z,10.00
2019-04-09T06:31:57.832Z,10.00
2019-04-09T06:34:44.617Z,10.00
2019-04-09T06:37:33.394Z,10.00
2019-04-09T06:40:14.534Z,10.00
2019-04-09T06:43:05.653Z,10.10
2019-04-09T06:45:59.742Z,10.00
2019-04-09T06:48:40.441Z,10.10
2019-04-09T06:51:31.439Z,10.10
2019-04-09T06:54:08.176Z,10.10
2019-04-09T06:56:55.163Z,10.20
2019-04-09T06:59:36.504Z,10.20
2019-04-09T07:02:17.944Z,10.20
2019-04-09T07:05:03.404Z,10.20
2019-04-09T07:07:51.989Z,10.30
2019-04-09T07:10:26.517Z,10.30
2019-04-09T07:13:17.723Z,10.30
2019-04-09T07:16:03.318Z,10.30
2019-04-09T07:18:51.607Z,10.30
2019-04-09T07:21:36.215Z,10.30
2019-04-09T07:24:22.939Z,10.40
2019-04-09T07:27:23.115Z,10.40
2019-04-09T07:30:12.335Z,10.40
2019-04-09T07:33:11.768Z,10.40
2019-04-09T07:35:56.919Z,10.40
2019-04-09T07:38:37.051Z,10.40
2019-04-09T07:41:16.005Z,10.40
2019-04-09T07:43:58.453Z,10.50
2019-04-09T07:46:48.843Z,10.50
2019-04-09T07:49:37.348Z,10.50
2019-04-09T07:52:22.306Z,10.50
2019-04-09T07:55:16.504Z,10.60
2019-04-09T07:57:55.030Z,10.60
2019-04-09T08:00:45.784Z,10.70
2019-04-09T08:03:23.952Z,10.70
2019-04-09T08:06:11.082Z,10.70
2019-04-09T08:08:56.684Z,10.70
2019-04-09T08:11:33.258Z,10.80
2019-04-09T08:14:14.183Z,10.80
2019-04-09T08:17:02.460Z,10.80
2019-04-09T08:19:51.471Z,10.90
2019-04-09T08:22:34.279Z,10.90
2019-04-09T08:25:23.018Z,10.90
2019-04-09T08:28:09.803Z,10.90
2019-04-09T08:30:57.996Z,10.90
2019-04-09T08:33:46.133Z,11.00
2019-04-09T08:36:45.959Z,11.00
2019-04-09T08:39:37.717Z,11.00
2019-04-09T08:42:29.636Z,11.00
2019-04-09T08:45:20.643Z,11.10
2019-04-09T08:48:03.360Z,11.10
2019-04-09T08:50:52.585Z,11.10
2019-04-09T08:53:40.624Z,11.10
2019-04-09T08:56:17.683Z,11.10
2019-04-09T08:59:15.561Z,11.10
2019-04-09T09:02:11.118Z,11.20
2019-04-09T09:04:50.881Z,11.20
2019-04-09T09:07:18.172Z,11.20
2019-04-09T09:10:05.616Z,11.30
2019-04-09T09:12:47.867Z,11.30
2019-04-09T09:15:33.962Z,11.40
2019-04-09T09:18:08.167Z,11.40
2019-04-09T09:20:50.378Z,11.40
2019-04-09T09:23:37.297Z,11.40
2019-04-09T09:26:25.421Z,11.40
2019-04-09T09:29:00.142Z,11.50
2019-04-09T09:31:39.751Z,11.50
2019-04-09T09:34:34.870Z,11.50
2019-04-09T09:37:28.872Z,11.50
2019-04-09T09:40:11.441Z,11.60
2019-04-09T09:43:01.374Z,11.60
2019-04-09T09:45:40.503Z,11.60
2019-04-09T09:48:27.364Z,11.60
2019-04-09T09:51:05.500Z,11.70
2019-04-09T09:53:54.559Z,11.70
2019-04-09T09:56:34.842Z,11.70
2019-04-09T09:59:22.505Z,11.80
2019-04-09T10:02:14.622Z,11.80
2019-04-09T10:05:03.269Z,11.80
2019-04-09T10:08:02.024Z,11.90
2019-04-09T10:10:46.109Z,11.90
2019-04-09T10:13:31.694Z,11.90
2019-04-09T10:16:19.286Z,12.00
2019-04-09T10:19:11.379Z,12.00
2019-04-09T10:21:47.916Z,12.10
2019-04-09T10:24:37.390Z,12.10
2019-04-09T10:27:34.731Z,12.10
2019-04-09T10:30:16.238Z,12.10
2019-04-09T10:33:11.504Z,12.20
2019-04-09T10:36:07.164Z,12.30
2019-04-09T10:38:47.686Z,12.40
2019-04-09T10:41:43.253Z,12.40
2019-04-09T10:44:26.973Z,12.50
2019-04-09T10:47:09.594Z,12.50
2019-04-09T10:49:47.078Z,12.50
2019-04-09T10:52:28.763Z,12.60
2019-04-09T10:55:18.081Z,12.60
2019-04-09T10:58:01.959Z,12.60
2019-04-09T11:00:51.282Z,12.70
2019-04-09T11:03:39.324Z,12.70
2019-04-09T11:06:32.949Z,12.70
2019-04-09T11:09:17.536Z,12.70
2019-04-09T11:12:08.892Z,12.70
2019-04-09T11:15:01.796Z,12.70
2019-04-09T11:17:47.219Z,12.70
2019-04-09T11:20:47.273Z,12.70
2019-04-09T11:23:27.745Z,12.70
2019-04-09T11:26:16.860Z,12.70
2019-04-09T11:28:58.397Z,12.70
2019-04-09T11:31:49.116Z,12.80
2019-04-09T11:34:31.775Z,12.80
2019-04-09T11:37:16.397Z,12.80
2019-04-09T11:40:05.679Z,12.80
2019-04-09T11:42:52.608Z,12.80
2019-04-09T11:45:48.182Z,12.80
2019-04-09T11:48:39.575Z,12.80
2019-04-09T11:51:34.447Z,12.70
2019-04-09T11:54:32.308Z,12.70
2019-04-09T11:57:20.273Z,12.70
2019-04-09T12:00:11.583Z,12.70
2019-04-09T12:03:11.345Z,12.70
2019-04-09T12:05:58.619Z,12.70
2019-04-09T12:08:45.209Z,12.70
2019-04-09T12:11:36.818Z,12.70
2019-04-09T12:14:24.102Z,12.60
2019-04-09T12:17:06.048Z,12.60
2019-04-09T12:20:03.311Z,12.60
2019-04-09T12:22:39.765Z,12.60
2019-04-09T12:25:46.394Z,12.60
2019-04-09T12:28:29.252Z,12.60
2019-04-09T12:31:23.919Z,12.60
2019-04-09T12:34:22.081Z,12.50
2019-04-09T12:36:58.254Z,12.50
2019-04-09T12:39:46.384Z,12.50
2019-04-09T12:42:42.849Z,12.50
2019-04-09T12:45:25.282Z,12.50
2019-04-09T12:48:06.411Z,12.50
2019-04-09T12:50:52.053Z,12.50
2019-04-09T12:53:34.196Z,12.40
2019-04-09T12:56:13.130Z,12.40
2019-04-09T12:58:48.570Z,12.40
2019-04-09T13:01:36.515Z,12.40
2019-04-09T13:04:15.649Z,12.40
2019-04-09T13:07:12.927Z,12.40
2019-04-09T13:09:48.893Z,12.30
2019-04-09T13:12:38.158Z,12.30
2019-04-09T13:15:25.196Z,12.30
2019-04-09T13:18:11.110Z,12.30
2019-04-09T13:20:55.377Z,12.40
2019-04-09T13:23:35.165Z,12.40
2019-04-09T13:26:32.502Z,12.40
2019-04-09T13:29:36.668Z,12.40
2019-04-09T13:32:35.387Z,12.40
2019-04-09T13:35:16.313Z,12.40
2019-04-09T13:38:09.495Z,12.40
2019-04-09T13:41:00.418Z,12.40
2019-04-09T13:43:48.573Z,12.40
2019-04-09T13:46:37.048Z,12.40
2019-04-09T13:49:28.774Z,12.40
2019-04-09T13:52:12.898Z,12.40
2019-04-09T13:54:42.205Z,12.40
2019-04-09T13:57:11.638Z,12.40
2019-04-09T13:59:40.792Z,12.50
2019-04-09T14:02:09.901Z,12.50
2019-04-09T14:05:07.069Z,12.50
2019-04-09T14:07:37.281Z,12.50
2019-04-09T14:10:08.196Z,12.60
2019-04-09T14:12:37.373Z,12.60
2019-04-09T14:15:08.563Z,12.60
2019-04-09T14:17:38.911Z,12.60
2019-04-09T14:20:09.484Z,12.60
2019-04-09T14:22:39.376Z,12.60
2019-04-09T14:25:10.150Z,12.60
2019-04-09T14:27:40.640Z,12.50
2019-04-09T14:30:11.072Z,12.50
2019-04-09T14:32:40.754Z,12.50
2019-04-09T14:35:09.953Z,12.50
2019-04-09T14:37:39.553Z,12.40
2019-04-09T14:40:09.938Z,12.40
2019-04-09T14:42:39.168Z,12.40
2019-04-09T14:45:09.310Z,12.40
2019-04-09T14:47:39.205Z,12.30
2019-04-09T14:50:09.502Z,12.30
2019-04-09T14:52:50.878Z,12.30
2019-04-09T14:55:09.516Z,12.20
2019-04-09T14:57:38.851Z,12.20
2019-04-09T15:00:12.199Z,12.20
2019-04-09T15:02:41.364Z,12.20
2019-04-09T15:05:10.452Z,12.10
2019-04-09T15:07:39.620Z,12.10
2019-04-09T15:10:09.205Z,12.00
2019-04-09T15:12:38.380Z,12.00
2019-04-09T15:15:08.020Z,12.00
2019-04-09T15:17:37.433Z,12.00
2019-04-09T15:20:07.207Z,12.00
2019-04-09T15:22:36.655Z,12.00
2019-04-09T15:25:07.037Z,12.00
2019-04-09T15:27:36.312Z,12.00
2019-04-09T15:30:06.644Z,12.00
2019-04-09T15:32:35.725Z,12.00
2019-04-09T15:35:05.655Z,12.00
2019-04-09T15:37:35.392Z,12.00
2019-04-09T15:40:05.102Z,12.00
2019-04-09T15:42:34.375Z,12.00
2019-04-09T15:45:04.465Z,12.00
2019-04-09T15:47:33.802Z,12.00
2019-04-09T15:50:04.971Z,12.00
2019-04-09T15:52:33.724Z,12.00
2019-04-09T15:55:03.292Z,11.90
2019-04-09T15:57:32.497Z,11.90
2019-04-09T16:00:01.608Z,11.90
2019-04-09T16:02:32.148Z,11.90
2019-04-09T16:05:01.255Z,11.90
2019-04-09T16:07:30.596Z,11.90
2019-04-09T16:10:00.334Z,11.90
2019-04-09T16:12:29.444Z,11.90
2019-04-09T16:14:58.540Z,11.80
2019-04-09T16:17:27.680Z,11.80
2019-04-09T16:19:56.825Z,11.80
2019-04-09T16:22:26.351Z,11.80
2019-04-09T16:24:55.490Z,11.80
2019-04-09T16:27:24.556Z,11.80
2019-04-09T16:29:54.812Z,11.80
2019-04-09T16:32:24.074Z,11.80
2019-04-09T16:34:53.233Z,11.80
2019-04-09T16:37:25.338Z,11.80
2019-04-09T16:39:53.146Z,11.70
2019-04-09T16:42:32.123Z,11.70
2019-04-09T16:45:00.576Z,11.70
2019-04-09T16:47:24.378Z,11.70
2019-04-09T16:49:54.237Z,11.60
2019-04-09T16:52:25.282Z,11.60
2019-04-09T16:54:55.603Z,11.60
2019-04-09T16:57:25.677Z,11.60
2019-04-09T16:59:55.713Z,11.50
2019-04-09T17:02:26.563Z,11.50
2019-04-09T17:04:55.886Z,11.50
2019-04-09T17:07:25.935Z,11.50
2019-04-09T17:09:56.035Z,11.50
2019-04-09T17:12:26.196Z,11.50
2019-04-09T17:14:55.419Z,11.50
2019-04-09T17:17:25.077Z,11.50
2019-04-09T17:19:55.506Z,11.50
2019-04-09T17:22:24.723Z,11.40
2019-04-09T17:24:55.032Z,11.40
2019-04-09T17:27:24.158Z,11.40
2019-04-09T17:29:53.338Z,11.40
2019-04-09T17:32:22.507Z,11.40
2019-04-09T17:34:54.521Z,11.40
2019-04-09T17:37:23.591Z,11.40
2019-04-09T17:40:02.719Z,11.40
2019-04-09T17:42:23.625Z,11.30
2019-04-09T17:44:53.453Z,11.30
2019-04-09T17:47:22.692Z,11.30
2019-04-09T17:49:51.891Z,11.30
2019-04-09T17:52:21.991Z,11.30
2019-04-09T17:54:51.220Z,11.30
2019-04-09T17:57:20.325Z,11.30
2019-04-09T17:59:50.185Z,11.30
2019-04-09T18:02:20.333Z,11.30
2019-04-09T18:04:52.874Z,11.30
2019-04-09T18:07:20.314Z,11.30
2019-04-09T18:09:49.684Z,11.20
2019-04-09T18:12:18.896Z,11.20
2019-04-09T18:14:49.861Z,11.20
2019-04-09T18:17:19.460Z,11.20
2019-04-09T18:19:49.540Z,11.20
2019-04-09T18:22:19.021Z,11.20
2019-04-09T18:24:49.379Z,11.20
2019-04-09T18:27:19.162Z,11.20
2019-04-09T18:29:48.413Z,11.20
2019-04-09T18:32:17.579Z,11.10
2019-04-09T18:34:54.662Z,11.10
2019-04-09T18:37:17.811Z,11.10
2019-04-09T18:39:47.932Z,11.10
2019-04-09T18:42:17.255Z,11.10
2019-04-09T18:44:47.419Z,11.10
2019-04-09T18:47:17.962Z,11.10
2019-04-09T18:49:47.123Z,11.10
2019-04-09T18:52:16.225Z,11.00
2019-04-09T18:54:46.123Z,11.00
2019-04-09T18:57:15.311Z,11.00
2019-04-09T18:59:44.500Z,11.00
2019-04-09T19:02:14.444Z,11.00
2019-04-09T19:04:43.846Z,11.00
2019-04-09T19:07:13.729Z,11.00
2019-04-09T19:09:44.062Z,11.00
2019-04-09T19:12:13.307Z,11.00
2019-04-09T19:14:42.516Z,11.00
2019-04-09T19:17:11.611Z,10.90
2019-04-09T19:19:40.720Z,10.90
2019-04-09T19:22:09.822Z,10.90
2019-04-09T19:24:39.644Z,10.90
2019-04-09T19:27:09.543Z,10.90
2019-04-09T19:29:39.174Z,10.90
2019-04-09T19:32:09.730Z,10.90
2019-04-09T19:34:39.443Z,10.90
2019-04-09T19:37:08.616Z,10.90
2019-04-09T19:39:39.466Z,10.80
2019-04-09T19:42:12.648Z,10.80
2019-04-09T19:44:39.383Z,10.80
2019-04-09T19:47:09.217Z,10.80
2019-04-09T19:49:39.321Z,10.80
2019-04-09T19:52:08.545Z,10.80
2019-04-09T19:54:37.771Z,10.80
2019-04-09T19:57:07.931Z,10.80
2019-04-09T19:59:37.153Z,10.80
2019-04-09T20:02:06.425Z,10.80
2019-04-09T20:04:35.526Z,10.80
2019-04-09T20:07:04.618Z,10.80
2019-04-09T20:09:33.996Z,10.80
2019-04-09T20:12:03.097Z,10.80
2019-04-09T20:14:32.611Z,10.80
2019-04-09T20:17:01.762Z,10.80
2019-04-09T20:19:31.202Z,10.80
2019-04-09T20:22:01.152Z,10.80
2019-04-09T20:24:31.060Z,10.70
2019-04-09T20:27:01.125Z,10.70
2019-04-09T20:29:31.193Z,10.70
2019-04-09T20:32:00.326Z,10.70
2019-04-09T20:34:29.414Z,10.70
2019-04-09T20:36:59.012Z,10.70
2019-04-09T20:39:34.830Z,10.70
2019-04-09T20:42:00.023Z,10.70
2019-04-09T20:44:29.644Z,10.70
2019-04-09T20:46:58.834Z,10.70
2019-04-09T20:49:28.430Z,10.70
2019-04-09T20:51:57.552Z,10.70
2019-04-09T20:54:33.759Z,10.70
2019-04-09T20:57:02.832Z,10.70
2019-04-09T21:00:06.139Z,10.70
2019-04-09T21:02:53.110Z,10.70
2019-04-09T21:05:22.511Z,10.70
2019-04-09T21:07:51.558Z,10.70
2019-04-09T21:10:21.253Z,10.70
2019-04-09T21:12:50.437Z,10.70
2019-04-09T21:15:19.523Z,10.70
2019-04-09T21:17:48.602Z,10.70
2019-04-09T21:20:19.080Z,10.70
2019-04-09T21:22:48.599Z,10.70
2019-04-09T21:25:18.343Z,10.70
2019-04-09T21:27:47.694Z,10.70
2019-04-09T21:30:16.854Z,10.70
2019-04-09T21:32:46.648Z,10.70
2019-04-09T21:35:15.747Z,10.70
2019-04-09T21:37:44.831Z,10.70
2019-04-09T21:40:14.125Z,10.70
2019-04-09T21:42:43.234Z,10.70
2019-04-09T21:45:13.459Z,10.70
2019-04-09T21:47:42.738Z,10.70
2019-04-09T21:50:12.774Z,10.70
2019-04-09T21:52:41.894Z,10.70
2019-04-09T21:55:11.904Z,10.60
2019-04-09T21:57:41.237Z,10.70
2019-04-09T22:00:14.474Z,10.70
2019-04-09T22:02:44.827Z,10.70
2019-04-09T22:05:14.237Z,10.70
2019-04-09T22:07:43.356Z,10.70
2019-04-09T22:10:13.481Z,10.70
2019-04-09T22:12:42.567Z,10.70
2019-04-09T22:15:12.972Z,10.70
2019-04-09T22:17:42.196Z,10.60
2019-04-09T22:20:12.916Z,10.60
2019-04-09T22:22:43.162Z,10.70
2019-04-09T22:25:12.388Z,10.60
2019-04-09T22:27:41.627Z,10.60
2019-04-09T22:30:10.858Z,10.60
2019-04-09T22:32:40.351Z,10.60
2019-04-09T22:35:09.579Z,10.60
2019-04-09T22:37:38.677Z,10.60
2019-04-09T22:40:07.917Z,10.60
2019-04-09T22:42:38.037Z,10.60
2019-04-09T22:45:07.466Z,10.60
2019-04-09T22:47:37.491Z,10.60
2019-04-09T22:50:07.867Z,10.60
2019-04-09T22:52:37.060Z,10.60
2019-04-09T22:55:06.402Z,10.60
2019-04-09T22:57:35.945Z,10.60
2019-04-09T23:00:08.630Z,10.60
2019-04-09T23:02:47.999Z,10.60
2019-04-09T23:05:31.157Z,10.60
2019-04-09T23:08:03.535Z,10.60
2019-04-09T23:10:52.374Z,10.60
2019-04-09T23:13:22.704Z,10.60
2019-04-09T23:15:51.970Z,10.60
2019-04-09T23:18:21.239Z,10.60
2019-04-09T23:20:50.658Z,10.60
2019-04-09T23:23:20.740Z,10.60
2019-04-09T23:25:49.936Z,10.60
2019-04-09T23:28:19.189Z,10.60
2019-04-09T23:30:48.416Z,10.60
2019-04-09T23:33:18.415Z,10.60
2019-04-09T23:35:47.704Z,10.60
2019-04-09T23:38:16.882Z,10.60
2019-04-09T23:40:45.980Z,10.60
2019-04-09T23:43:15.038Z,10.60
2019-04-09T23:45:44.136Z,10.60
2019-04-09T23:48:13.638Z,10.60
2019-04-09T23:50:43.497Z,10.60
2019-04-09T23:53:12.802Z,10.60
2019-04-09T23:55:42.754Z,10.60
2019-04-09T23:58:13.200Z,10.60
